Copper Center, AK

5:46 PM AKDT on September 15, 2014 (GMT -0800)
Klutina River | Change Station
CLOSE
Current Station
Personal Weather Station
Location: Copper Center, AK
Elevation: 1100 ft
Nearby Weather Stations

Elev 1100 ft 61.95 °N, 145.32 °W | Updated 9 seconds ago

Clear
Clear
59.0 °F
Feels Like 59.0 °F
N
4.0
Wind Variable Wind from SE
Gusts 12.0 mph

Today
High -- | Low -- °F
--% Chance of Precip.
Yesterday
High -- | Low -- °F
Precip. -- in
7:07 AM 8:03 PM
Waning Gibbous, 50% visible
Pressure 29.70 in
Visibility 10.0 miles
Clouds Clear
Dew Point 45 °F
Humidity 59%
Rainfall 0.07 in
Snow Depth 5 in , 5 in , 1 in
UV 2 out of 12
Pollen Not available.
Air Quality Not available.
Flu Activity Not available.
METAR PAGK 160053Z AUTO 17017G22KT 10SM CLR 14/04 A2969 RMK AO2 PK WND 17027/0016 SLP055 T01440039 TSNO

More Conditions Fewer Conditions

Pressure 29.70 in
Visibility 10.0 miles
Clouds Clear
Dew Point 45 °F
Humidity 59%
Rainfall 0.07 in
Snow Depth 5 in , 5 in , 1 in
UV 2 out of 12
Pollen Not available.
Air Quality Not available.
Flu Activity Not available.
METAR PAGK 160053Z AUTO 17017G22KT 10SM CLR 14/04 A2969 RMK AO2 PK WND 17027/0016 SLP055 T01440039 TSNO

More Conditions Fewer Conditions

10-Day Weather Forecast

Almanac

Astronomy

Sep. 15, 2014 Rise Set
Actual Time 7:07 AM AKDT 8:03 PM AKDT
Civil Twilight 6:22 AM AKDT 8:48 PM AKDT
Nautical Twilight 5:26 AM AKDT 9:44 PM AKDT
Astronomical Twilight 4:21 AM AKDT 10:48 PM AKDT
Moon 11:07 PM AKDT (9/15) 4:04 PM AKDT (9/15)
Length of Visible Light 14h 26m
Length of Day
12h 56m
Tomorrow will be 5m 51s shorter.
Waning Gibbous, 50% of the Moon is Illuminated
Today
Waning Gibbous
Sep 15
Last Quarter
Sep 24
New
Oct 1
First Quarter
Oct 8
Full

Today's Extremes

State Highs State Lows

Community

WunderPhotos

Upload Photos

1,753,643 photos uploaded!

WunderBlogs® & News

Nearby

Snow Depth

Station Depth Elevation
Grandview 5 in 1100 ft
Rocky Point 5 in 500 ft
Upper Chena 1 in 2850 ft
MF Bradley River 2 in 2300 ft
Susitna Valley High 2 in 375 ft

Earthquake Activity

City Distance Mag. Time & Date
No recent earthquake activity has been reported nearby.
Minimum magnitude displayed is 2.5.

Coastal Water Temperatures

Place Temperature
No Stations Reporting

Nearby Weather Stations